createdAt,value
2018-08-08T00:01:10.160Z,44.30
2018-08-08T00:03:38.367Z,44.50
2018-08-08T00:06:06.746Z,44.60
2018-08-08T00:08:34.911Z,44.80
2018-08-08T00:11:03.340Z,44.80
2018-08-08T00:13:31.493Z,45.00
2018-08-08T00:15:59.677Z,45.20
2018-08-08T00:18:27.923Z,45.30
2018-08-08T00:20:56.115Z,45.50
2018-08-08T00:23:25.050Z,45.90
2018-08-08T00:25:54.133Z,45.60
2018-08-08T00:28:22.451Z,45.60
2018-08-08T00:30:50.662Z,45.60
2018-08-08T00:33:19.044Z,45.60
2018-08-08T00:35:47.226Z,45.70
2018-08-08T00:38:15.469Z,45.70
2018-08-08T00:40:43.693Z,45.70
2018-08-08T00:43:11.897Z,45.80
2018-08-08T00:45:40.202Z,45.90
2018-08-08T00:48:08.400Z,45.90
2018-08-08T00:50:36.647Z,46.60
2018-08-08T00:53:05.066Z,46.10
2018-08-08T00:55:33.217Z,46.20
2018-08-08T00:58:01.433Z,46.30
2018-08-08T01:00:29.687Z,46.40
2018-08-08T01:02:57.869Z,46.50
2018-08-08T01:05:26.214Z,46.60
2018-08-08T01:07:54.419Z,46.80
2018-08-08T01:10:22.665Z,46.90
2018-08-08T01:12:50.953Z,46.90
2018-08-08T01:15:19.148Z,46.90
2018-08-08T01:17:47.359Z,47.00
2018-08-08T01:20:16.651Z,47.20
2018-08-08T01:22:45.142Z,47.40
2018-08-08T01:25:15.607Z,47.40
2018-08-08T01:27:43.987Z,47.50
2018-08-08T01:30:13.749Z,47.70
2018-08-08T01:32:41.955Z,47.80
2018-08-08T01:35:10.253Z,47.90
2018-08-08T01:37:38.359Z,47.90
2018-08-08T01:40:08.973Z,48.00
2018-08-08T01:42:37.191Z,48.10
2018-08-08T01:45:06.455Z,48.20
2018-08-08T01:47:34.567Z,48.20
2018-08-08T01:50:03.075Z,48.40
2018-08-08T01:52:31.320Z,48.20
2018-08-08T01:54:59.594Z,48.20
2018-08-08T01:57:27.765Z,48.20
2018-08-08T01:59:55.940Z,48.80
2018-08-08T02:02:24.023Z,48.30
2018-08-08T02:04:52.252Z,47.90
2018-08-08T02:07:20.417Z,48.40
2018-08-08T02:09:48.599Z,48.30
2018-08-08T02:12:16.723Z,48.30
2018-08-08T02:14:44.875Z,48.30
2018-08-08T02:17:13.149Z,48.30
2018-08-08T02:19:41.386Z,48.30
2018-08-08T02:22:09.611Z,48.20
2018-08-08T02:24:38.042Z,48.30
2018-08-08T02:27:06.223Z,48.30
2018-08-08T02:29:34.389Z,48.20
2018-08-08T02:32:02.599Z,48.20
2018-08-08T02:34:30.829Z,48.30
2018-08-08T02:36:59.124Z,48.20
2018-08-08T02:39:27.271Z,48.30
2018-08-08T02:41:55.588Z,48.20
2018-08-08T02:44:23.788Z,48.40
2018-08-08T02:46:52.024Z,48.40
2018-08-08T02:49:20.243Z,48.40
2018-08-08T02:51:48.408Z,48.50
2018-08-08T02:54:16.607Z,48.60
2018-08-08T02:56:44.762Z,48.80
2018-08-08T02:59:12.882Z,48.80
2018-08-08T03:01:41.052Z,48.80
2018-08-08T03:04:09.256Z,48.90
2018-08-08T03:06:37.390Z,49.00
2018-08-08T03:09:08.424Z,49.00
2018-08-08T03:11:36.780Z,49.20
2018-08-08T03:14:05.098Z,49.10
2018-08-08T03:16:33.251Z,49.10
2018-08-08T03:19:01.469Z,49.20
2018-08-08T03:21:29.603Z,49.20
2018-08-08T03:23:57.796Z,49.30
2018-08-08T03:26:25.948Z,49.90
2018-08-08T03:28:54.106Z,49.50
2018-08-08T03:31:22.290Z,49.40
2018-08-08T03:33:50.451Z,49.50
2018-08-08T03:36:18.789Z,49.50
2018-08-08T03:38:47.243Z,49.60
2018-08-08T03:41:15.419Z,49.50
2018-08-08T03:43:43.659Z,49.50
2018-08-08T03:46:11.851Z,49.60
2018-08-08T03:48:40.041Z,49.70
2018-08-08T03:51:08.149Z,49.60
2018-08-08T03:53:36.316Z,49.70
2018-08-08T03:56:04.467Z,49.70
2018-08-08T03:58:32.596Z,49.70
2018-08-08T04:01:00.755Z,49.80
2018-08-08T04:03:28.889Z,49.80
2018-08-08T04:05:57.180Z,49.80
2018-08-08T04:08:25.600Z,49.90
2018-08-08T04:10:53.782Z,49.90
2018-08-08T04:13:22.005Z,49.90
2018-08-08T04:15:50.301Z,50.00
2018-08-08T04:18:18.475Z,49.90
2018-08-08T04:20:46.866Z,50.00
2018-08-08T04:23:15.160Z,50.00
2018-08-08T04:25:43.266Z,50.10
2018-08-08T04:28:11.600Z,50.10
2018-08-08T04:30:39.726Z,50.10
2018-08-08T04:33:08.156Z,50.10
2018-08-08T04:35:36.315Z,50.00
2018-08-08T04:38:04.486Z,50.00
2018-08-08T04:40:32.619Z,50.10
2018-08-08T04:43:00.783Z,50.10
2018-08-08T04:45:28.897Z,50.00
2018-08-08T04:47:57.134Z,50.00
2018-08-08T04:50:25.396Z,50.10
2018-08-08T04:52:53.592Z,50.00
2018-08-08T04:55:21.845Z,50.00
2018-08-08T04:57:50.036Z,50.00
2018-08-08T05:00:18.691Z,49.80
2018-08-08T05:02:47.078Z,49.70
2018-08-08T05:05:15.400Z,49.60
2018-08-08T05:07:43.544Z,49.30
2018-08-08T05:10:12.363Z,49.20
2018-08-08T05:12:41.167Z,49.30
2018-08-08T05:15:11.307Z,48.80
2018-08-08T05:17:39.522Z,47.90
2018-08-08T05:20:09.366Z,47.50
2018-08-08T05:22:37.762Z,47.70
2018-08-08T05:25:06.536Z,46.90
2018-08-08T05:27:34.672Z,45.80
2018-08-08T05:30:02.947Z,44.80
2018-08-08T05:32:31.134Z,44.30
2018-08-08T05:34:59.250Z,43.50
2018-08-08T05:37:27.401Z,43.90
2018-08-08T05:39:55.558Z,43.70
2018-08-08T05:42:23.715Z,43.60
2018-08-08T05:44:51.847Z,43.70
2018-08-08T05:47:20.011Z,43.90
2018-08-08T05:49:48.175Z,44.50
2018-08-08T05:52:16.393Z,45.10
2018-08-08T05:54:44.583Z,45.30
2018-08-08T05:57:12.925Z,44.60
2018-08-08T05:59:41.189Z,43.60
2018-08-08T06:02:09.347Z,42.90
2018-08-08T06:04:37.515Z,42.70
2018-08-08T06:07:06.069Z,42.30
2018-08-08T06:09:34.277Z,41.80
2018-08-08T06:12:02.447Z,41.60
2018-08-08T06:14:30.697Z,41.20
2018-08-08T06:16:58.859Z,40.90
2018-08-08T06:19:26.977Z,40.50
2018-08-08T06:21:55.125Z,40.20
2018-08-08T06:24:23.331Z,39.80
2018-08-08T06:26:51.523Z,39.10
2018-08-08T06:29:19.667Z,38.80
2018-08-08T06:31:47.844Z,38.90
2018-08-08T06:34:16.011Z,38.20
2018-08-08T06:36:44.167Z,37.60
2018-08-08T06:39:14.063Z,38.10
2018-08-08T06:41:42.826Z,38.10
2018-08-08T06:44:11.126Z,39.00
2018-08-08T06:46:39.225Z,39.10
2018-08-08T06:49:07.514Z,39.60
2018-08-08T06:51:35.735Z,39.70
2018-08-08T06:54:04.856Z,39.60
2018-08-08T06:56:32.956Z,39.30
2018-08-08T06:59:01.203Z,39.20
2018-08-08T07:01:29.363Z,38.70
2018-08-08T07:03:57.515Z,38.70
2018-08-08T07:06:25.679Z,38.20
2018-08-08T07:08:53.989Z,38.20
2018-08-08T07:11:22.203Z,38.40
2018-08-08T07:13:50.501Z,38.70
2018-08-08T07:16:18.791Z,38.90
2018-08-08T07:18:46.994Z,38.40
2018-08-08T07:21:15.221Z,38.30
2018-08-08T07:23:43.391Z,38.60
2018-08-08T07:26:11.687Z,38.40
2018-08-08T07:28:39.855Z,38.70
2018-08-08T07:31:08.115Z,38.40
2018-08-08T07:33:36.410Z,38.20
2018-08-08T07:36:04.723Z,38.20
2018-08-08T07:38:32.891Z,38.20
2018-08-08T07:41:01.266Z,37.90
2018-08-08T07:43:29.459Z,37.90
2018-08-08T07:45:57.689Z,37.60
2018-08-08T07:48:25.769Z,37.50
2018-08-08T07:50:53.969Z,37.70
2018-08-08T07:53:22.279Z,37.70
2018-08-08T07:55:50.445Z,38.00
2018-08-08T07:58:18.811Z,38.30
2018-08-08T08:00:46.992Z,38.40
2018-08-08T08:03:15.167Z,38.60
2018-08-08T08:05:43.339Z,38.90
2018-08-08T08:08:11.519Z,38.90
2018-08-08T08:10:39.667Z,38.20
2018-08-08T08:13:07.920Z,38.30
2018-08-08T08:15:36.141Z,38.20
2018-08-08T08:18:04.732Z,38.30
2018-08-08T08:20:32.985Z,38.40
2018-08-08T08:23:01.499Z,38.50
2018-08-08T08:25:29.831Z,39.00
2018-08-08T08:27:58.047Z,38.90
2018-08-08T08:30:26.249Z,38.80
2018-08-08T08:32:54.376Z,39.00
2018-08-08T08:35:23.159Z,39.00
2018-08-08T08:37:51.317Z,38.70
2018-08-08T08:40:19.467Z,38.90
2018-08-08T08:42:47.659Z,39.10
2018-08-08T08:45:15.825Z,39.10
2018-08-08T08:47:43.971Z,39.20
2018-08-08T08:50:12.191Z,39.50
2018-08-08T08:52:40.521Z,39.40
2018-08-08T08:55:09.017Z,39.50
2018-08-08T08:57:37.282Z,39.30
2018-08-08T09:00:07.312Z,39.00
2018-08-08T09:02:35.509Z,39.20
2018-08-08T09:05:04.383Z,39.30
2018-08-08T09:07:32.573Z,39.50
2018-08-08T09:10:00.749Z,39.60
2018-08-08T09:12:29.535Z,39.60
2018-08-08T09:14:57.773Z,40.20
2018-08-08T09:17:25.881Z,39.60
2018-08-08T09:19:54.039Z,39.70
2018-08-08T09:22:22.225Z,39.30
2018-08-08T09:24:50.664Z,39.60
2018-08-08T09:27:18.883Z,39.60
2018-08-08T09:29:52.586Z,39.20
2018-08-08T09:32:20.760Z,39.20
2018-08-08T09:34:48.917Z,39.00
2018-08-08T09:37:17.105Z,38.90
2018-08-08T09:39:45.239Z,39.00
2018-08-08T09:42:13.503Z,38.40
2018-08-08T09:44:41.676Z,38.20
2018-08-08T09:47:09.908Z,37.40
2018-08-08T09:49:38.131Z,36.90
2018-08-08T09:52:06.564Z,36.90
2018-08-08T09:54:34.760Z,36.70
2018-08-08T09:57:02.959Z,36.70
2018-08-08T09:59:31.124Z,36.90
2018-08-08T10:02:04.869Z,36.70
2018-08-08T10:04:34.473Z,36.60
2018-08-08T10:07:04.209Z,36.40
2018-08-08T10:09:32.368Z,36.50
2018-08-08T10:12:00.658Z,36.50
2018-08-08T10:14:29.084Z,36.60
2018-08-08T10:16:57.286Z,36.70
2018-08-08T10:19:25.627Z,36.50
2018-08-08T10:21:53.797Z,36.80
2018-08-08T10:24:21.997Z,36.80
2018-08-08T10:26:50.226Z,36.70
2018-08-08T10:29:18.511Z,36.60
2018-08-08T10:31:46.898Z,36.30
2018-08-08T10:34:16.255Z,36.40
2018-08-08T10:36:44.523Z,36.30
2018-08-08T10:39:13.587Z,36.40
2018-08-08T10:41:42.228Z,36.00
2018-08-08T10:44:10.412Z,35.60
2018-08-08T10:46:38.621Z,35.70
2018-08-08T10:49:06.769Z,35.70
2018-08-08T10:51:34.939Z,34.80
2018-08-08T10:54:03.060Z,34.70
2018-08-08T10:56:31.287Z,34.70
2018-08-08T10:58:59.476Z,34.20
2018-08-08T11:01:27.929Z,34.20
2018-08-08T11:03:57.605Z,33.30
2018-08-08T11:06:25.732Z,33.30
2018-08-08T11:08:53.966Z,33.20
2018-08-08T11:11:22.736Z,32.90
2018-08-08T11:13:50.913Z,33.20
2018-08-08T11:16:19.076Z,33.20
2018-08-08T11:18:47.306Z,32.90
2018-08-08T11:21:15.613Z,32.30
2018-08-08T11:23:43.839Z,32.00
2018-08-08T11:26:11.999Z,31.60
2018-08-08T11:28:40.185Z,31.20
2018-08-08T11:31:08.381Z,31.30
2018-08-08T11:33:36.528Z,31.20
2018-08-08T11:36:04.628Z,31.10
2018-08-08T11:38:32.780Z,31.20
2018-08-08T11:41:00.950Z,30.90
2018-08-08T11:43:29.096Z,30.80
2018-08-08T11:45:57.256Z,30.70
2018-08-08T11:48:25.402Z,30.30
2018-08-08T11:50:53.576Z,30.50
2018-08-08T11:53:21.797Z,31.00
2018-08-08T11:55:49.945Z,30.20
2018-08-08T11:58:18.342Z,29.90
2018-08-08T12:00:46.502Z,29.60
2018-08-08T12:03:14.722Z,29.90
2018-08-08T12:05:43.200Z,29.70
2018-08-08T12:08:11.340Z,30.20
2018-08-08T12:10:39.508Z,29.80
2018-08-08T12:13:08.264Z,30.00
2018-08-08T12:15:36.445Z,29.90
2018-08-08T12:18:04.653Z,29.80
2018-08-08T12:20:32.799Z,30.00
2018-08-08T12:23:01.273Z,30.00
2018-08-08T12:25:29.447Z,30.00
2018-08-08T12:27:57.672Z,30.30
2018-08-08T12:30:25.868Z,30.50
2018-08-08T12:32:54.083Z,30.00
2018-08-08T12:35:22.544Z,30.00
2018-08-08T12:37:50.726Z,30.20
2018-08-08T12:40:18.872Z,30.40
2018-08-08T12:42:47.172Z,30.30
2018-08-08T12:45:15.313Z,30.10
2018-08-08T12:47:43.451Z,30.50
2018-08-08T12:50:11.651Z,30.60
2018-08-08T12:52:39.783Z,30.90
2018-08-08T12:55:09.117Z,30.70
2018-08-08T12:57:37.246Z,30.40
2018-08-08T13:00:05.838Z,30.50
2018-08-08T13:02:33.962Z,30.70
2018-08-08T13:05:02.178Z,30.30
2018-08-08T13:07:30.325Z,30.30
2018-08-08T13:09:58.465Z,30.30
2018-08-08T13:12:26.668Z,30.20
2018-08-08T13:14:54.821Z,30.40
2018-08-08T13:17:22.972Z,30.20
2018-08-08T13:19:51.124Z,30.20
2018-08-08T13:22:19.246Z,29.90
2018-08-08T13:24:47.513Z,29.90
2018-08-08T13:27:15.608Z,29.90
2018-08-08T13:29:43.764Z,29.90
2018-08-08T13:32:11.979Z,30.00
2018-08-08T13:34:40.136Z,29.80
2018-08-08T13:37:08.290Z,30.00
2018-08-08T13:39:36.583Z,29.50
2018-08-08T13:42:04.808Z,29.70
2018-08-08T13:44:33.071Z,29.50
2018-08-08T13:47:01.346Z,29.50
2018-08-08T13:49:29.533Z,29.70
2018-08-08T13:51:57.664Z,29.80
2018-08-08T13:54:25.859Z,30.00
2018-08-08T13:56:54.088Z,29.70
2018-08-08T13:59:22.403Z,29.60
2018-08-08T14:01:50.565Z,29.70
2018-08-08T14:04:18.986Z,29.80
2018-08-08T14:06:47.112Z,29.70
2018-08-08T14:09:15.236Z,29.70
2018-08-08T14:11:43.488Z,29.90
2018-08-08T14:14:11.800Z,29.80
2018-08-08T14:16:39.959Z,29.00
2018-08-08T14:19:08.185Z,28.90
2018-08-08T14:21:36.406Z,29.30
2018-08-08T14:24:04.572Z,29.40
2018-08-08T14:26:32.920Z,29.50
2018-08-08T14:29:01.140Z,29.60
2018-08-08T14:31:29.434Z,29.60
2018-08-08T14:33:57.749Z,29.70
2018-08-08T14:36:25.995Z,29.60
2018-08-08T14:38:54.199Z,29.50
2018-08-08T14:41:22.403Z,29.80
2018-08-08T14:43:50.571Z,29.70
2018-08-08T14:46:18.763Z,29.20
2018-08-08T14:48:46.894Z,28.80
2018-08-08T14:51:15.097Z,29.20
2018-08-08T14:53:43.237Z,28.50
2018-08-08T14:56:11.455Z,28.70
2018-08-08T14:58:39.655Z,28.80
2018-08-08T15:01:07.828Z,28.80
2018-08-08T15:03:36.271Z,28.30
2018-08-08T15:06:04.749Z,27.80
2018-08-08T15:08:32.873Z,27.90
2018-08-08T15:11:01.057Z,28.60
2018-08-08T15:13:29.229Z,29.00
2018-08-08T15:15:57.430Z,29.40
2018-08-08T15:18:25.620Z,29.70
2018-08-08T15:20:53.841Z,30.10
2018-08-08T15:23:22.092Z,30.50
2018-08-08T15:25:50.298Z,30.90
2018-08-08T15:28:18.491Z,31.30
2018-08-08T15:30:46.678Z,31.30
2018-08-08T15:33:15.186Z,31.40
2018-08-08T15:35:43.498Z,31.00
2018-08-08T15:38:11.776Z,31.30
2018-08-08T15:40:40.601Z,31.40
2018-08-08T15:43:08.810Z,31.50
2018-08-08T15:45:36.956Z,31.40
2018-08-08T15:48:11.860Z,31.60
2018-08-08T15:50:40.214Z,32.00
2018-08-08T15:53:08.490Z,32.30
2018-08-08T15:55:36.803Z,33.10
2018-08-08T15:58:05.090Z,33.20
2018-08-08T16:00:33.309Z,33.70
2018-08-08T16:03:01.512Z,34.00
2018-08-08T16:05:29.716Z,34.30
2018-08-08T16:08:00.452Z,35.30
2018-08-08T16:10:29.707Z,35.00
2018-08-08T16:12:57.848Z,35.20
2018-08-08T16:15:26.076Z,35.40
2018-08-08T16:17:54.309Z,35.60
2018-08-08T16:20:22.565Z,35.80
2018-08-08T16:22:50.763Z,36.00
2018-08-08T16:25:18.912Z,36.20
2018-08-08T16:27:47.242Z,36.50
2018-08-08T16:30:15.380Z,36.80
2018-08-08T16:32:43.550Z,36.30
2018-08-08T16:35:11.756Z,36.70
2018-08-08T16:37:40.032Z,36.80
2018-08-08T16:40:08.504Z,36.80
2018-08-08T16:42:36.706Z,36.80
2018-08-08T16:45:06.894Z,36.80
2018-08-08T16:47:35.072Z,36.90
2018-08-08T16:50:03.497Z,36.90
2018-08-08T16:52:31.665Z,37.40
2018-08-08T16:54:59.805Z,37.20
2018-08-08T16:57:27.930Z,37.50
2018-08-08T16:59:56.192Z,37.50
2018-08-08T17:02:24.384Z,37.50
2018-08-08T17:04:52.559Z,37.50
2018-08-08T17:07:20.740Z,37.70
2018-08-08T17:09:48.910Z,37.80
2018-08-08T17:12:17.143Z,38.00
2018-08-08T17:14:45.358Z,38.20
2018-08-08T17:17:14.486Z,38.30
2018-08-08T17:19:42.695Z,38.60
2018-08-08T17:22:10.928Z,38.70
2018-08-08T17:24:39.072Z,38.80
2018-08-08T17:27:07.243Z,39.10
2018-08-08T17:29:35.587Z,39.60
2018-08-08T17:32:03.749Z,40.30
2018-08-08T17:34:31.935Z,39.60
2018-08-08T17:37:00.210Z,39.80
2018-08-08T17:39:28.399Z,40.10
2018-08-08T17:41:57.289Z,39.90
2018-08-08T17:44:25.560Z,39.80
2018-08-08T17:46:53.708Z,40.20
2018-08-08T17:49:21.926Z,41.00
2018-08-08T17:51:50.254Z,41.20
2018-08-08T17:54:18.484Z,41.10
2018-08-08T17:56:46.904Z,41.40
2018-08-08T17:59:15.063Z,41.60
2018-08-08T18:01:43.357Z,41.80
2018-08-08T18:04:11.513Z,42.00
2018-08-08T18:06:39.766Z,42.20
2018-08-08T18:09:09.132Z,42.40
2018-08-08T18:11:38.289Z,42.40
2018-08-08T18:14:06.572Z,42.60
2018-08-08T18:16:34.720Z,42.80
2018-08-08T18:19:02.867Z,42.90
2018-08-08T18:21:31.208Z,43.20
2018-08-08T18:23:59.393Z,43.20
2018-08-08T18:26:27.535Z,43.20
2018-08-08T18:28:55.709Z,43.20
2018-08-08T18:31:23.939Z,42.70
2018-08-08T18:33:52.204Z,43.50
2018-08-08T18:36:20.442Z,43.90
2018-08-08T18:38:48.621Z,44.60
2018-08-08T18:41:16.810Z,45.10
2018-08-08T18:43:45.010Z,45.60
2018-08-08T18:46:13.142Z,46.50
2018-08-08T18:48:41.348Z,46.60
2018-08-08T18:51:09.449Z,46.90
2018-08-08T18:53:37.633Z,47.20
2018-08-08T18:56:05.946Z,47.10
2018-08-08T18:58:34.149Z,46.90
2018-08-08T19:01:02.476Z,46.60
2018-08-08T19:03:30.660Z,46.50
2018-08-08T19:05:58.972Z,46.30
2018-08-08T19:08:29.084Z,46.20
2018-08-08T19:10:59.114Z,46.30
2018-08-08T19:13:27.284Z,46.50
2018-08-08T19:15:55.502Z,46.70
2018-08-08T19:18:23.658Z,47.20
2018-08-08T19:20:51.864Z,47.40
2018-08-08T19:23:20.072Z,47.60
2018-08-08T19:25:48.275Z,48.10
2018-08-08T19:28:16.613Z,49.30
2018-08-08T19:30:44.778Z,52.50
2018-08-08T19:33:12.969Z,53.50
2018-08-08T19:35:41.188Z,55.20
2018-08-08T19:38:09.327Z,56.50
2018-08-08T19:40:38.110Z,57.60
2018-08-08T19:43:06.314Z,58.60
2018-08-08T19:45:34.764Z,61.40
2018-08-08T19:48:02.955Z,65.20
2018-08-08T19:50:31.127Z,66.70
2018-08-08T19:52:59.282Z,68.40
2018-08-08T19:55:27.431Z,71.10
2018-08-08T19:57:55.751Z,73.10
2018-08-08T20:00:23.917Z,74.10
2018-08-08T20:02:52.076Z,76.60
2018-08-08T20:05:20.390Z,76.70
2018-08-08T20:07:48.672Z,77.80
2018-08-08T20:10:16.856Z,77.70
2018-08-08T20:12:45.132Z,79.70
2018-08-08T20:15:13.318Z,79.10
2018-08-08T20:17:41.538Z,79.60
2018-08-08T20:20:09.850Z,79.90
2018-08-08T20:22:37.967Z,79.80
2018-08-08T20:25:06.726Z,81.10
2018-08-08T20:27:34.936Z,81.80
2018-08-08T20:30:03.250Z,82.90
2018-08-08T20:32:31.438Z,82.40
2018-08-08T20:34:59.710Z,82.30
2018-08-08T20:37:27.953Z,81.80
2018-08-08T20:39:56.300Z,82.00
2018-08-08T20:42:24.530Z,82.70
2018-08-08T20:44:52.792Z,83.10
2018-08-08T20:47:20.981Z,84.40
2018-08-08T20:49:49.146Z,84.50
2018-08-08T20:52:17.319Z,84.80
2018-08-08T20:54:45.434Z,84.90
2018-08-08T20:57:13.556Z,83.40
2018-08-08T20:59:41.856Z,82.70
2018-08-08T21:02:10.060Z,82.20
2018-08-08T21:04:38.200Z,81.90
2018-08-08T21:07:06.675Z,82.20
2018-08-08T21:09:34.959Z,83.60
2018-08-08T21:12:03.236Z,83.00
2018-08-08T21:14:31.489Z,81.90
2018-08-08T21:16:59.663Z,81.70
2018-08-08T21:19:27.944Z,82.10
2018-08-08T21:21:56.135Z,81.60
2018-08-08T21:24:24.335Z,80.70
2018-08-08T21:26:52.990Z,78.10
2018-08-08T21:29:21.245Z,78.50
2018-08-08T21:31:49.557Z,77.80
2018-08-08T21:34:17.913Z,78.10
2018-08-08T21:36:46.267Z,77.10
2018-08-08T21:39:14.605Z,77.00
2018-08-08T21:41:42.776Z,76.10
2018-08-08T21:44:11.199Z,74.40
2018-08-08T21:46:39.490Z,74.50
2018-08-08T21:49:07.633Z,74.00
2018-08-08T21:51:35.771Z,72.20
2018-08-08T21:54:15.459Z,71.90
2018-08-08T21:56:55.347Z,72.10
2018-08-08T21:59:35.097Z,72.00
2018-08-08T22:03:12.745Z,71.00
2018-08-08T22:05:52.465Z,70.50
2018-08-08T22:08:32.127Z,69.20
2018-08-08T22:11:16.399Z,68.20
2018-08-08T22:13:56.508Z,68.10
2018-08-08T22:16:43.068Z,67.70
2018-08-08T22:19:24.435Z,67.10
2018-08-08T22:21:53.140Z,66.80
2018-08-08T22:24:21.479Z,66.70
2018-08-08T22:26:49.845Z,66.00
2018-08-08T22:29:18.012Z,65.90
2018-08-08T22:31:46.220Z,65.70
2018-08-08T22:34:14.474Z,65.80
2018-08-08T22:36:42.684Z,66.80
2018-08-08T22:39:13.018Z,66.30
2018-08-08T22:41:42.155Z,66.60
2018-08-08T22:44:10.520Z,66.60
2018-08-08T22:46:38.928Z,66.90
2018-08-08T22:49:07.138Z,67.20
2018-08-08T22:51:35.318Z,67.30
2018-08-08T22:54:03.606Z,67.40
2018-08-08T22:56:31.937Z,67.70
2018-08-08T22:59:00.324Z,67.90
2018-08-08T23:01:28.539Z,68.00
2018-08-08T23:03:57.609Z,68.30
2018-08-08T23:06:27.166Z,68.40
2018-08-08T23:08:55.394Z,68.70
2018-08-08T23:11:23.553Z,68.60
2018-08-08T23:13:51.776Z,68.70
2018-08-08T23:16:20.097Z,68.80
2018-08-08T23:18:48.892Z,68.80
2018-08-08T23:21:17.088Z,69.10
2018-08-08T23:23:45.335Z,69.50
2018-08-08T23:26:13.617Z,68.80
2018-08-08T23:28:41.872Z,69.40
2018-08-08T23:31:10.149Z,69.50
2018-08-08T23:33:38.310Z,68.90
2018-08-08T23:36:06.506Z,69.00
2018-08-08T23:38:34.627Z,69.10
2018-08-08T23:41:02.799Z,69.20
2018-08-08T23:43:30.972Z,69.40
2018-08-08T23:45:59.263Z,69.80
2018-08-08T23:48:28.174Z,69.70
2018-08-08T23:50:56.430Z,69.90
2018-08-08T23:53:24.703Z,70.00
2018-08-08T23:55:52.951Z,70.30
2018-08-08T23:58:21.227Z,70.70
